^^
Datos históricos de la estación: Murcia-Puente Tocinos
Diario Informe para Diciembre 24, 2019 Unidades:  Ambas    Ingés   Métrico
Diario Semanal Mensual Anual
  Máxima: Mínima: Promedio:
Temperatura: 72.9 °F /  22.7 °C 46 °F /  7.8 °C 57.9 °F /  14.4 °C
Punto de rocio: 50.4 °F /  10.2 °C 41.2 °F /  5.1 °C 45.9 °F /  7.7 °C
Humedad: 84% 43% 66%
Velocidad viento: 6.4mph /  10.3km/h - 3.7mph /  5.9km/h
Racha viento: 11mph /  17.7km/h - -
Viento- - SSO
Presión: 30.4 in /  1028.8 hPa 30.2 in /  1023.9 hPa -
Precipitación: 0 in /  0.0 mm    
 
 
Tabla de datos para Diciembre 24, 2019
Hora Temperatura Punto de rocio Presión Viento Velocidad viento Racha viento Humedad Intensidad lluvia(por hora) Nubes
00:04 54.9 °F /  12.7 °C 46.4 °F /  8 °C 30.3in /  1026.8hPa OSO 1.3mph /  2.1km/h 3mph /  4.8km/h 73% 0in /  0.0mm
00:09 54.9 °F /  12.7 °C 46.2 °F /  7.9 °C 30.3in /  1026.8hPa OSO 2mph /  3.2km/h 2.9mph /  4.7km/h 73% 0in /  0.0mm
00:14 54.5 °F /  12.5 °C 46 °F /  7.8 °C 30.3in /  1026.8hPa SSO 1.6mph /  2.6km/h 4mph /  6.4km/h 73% 0in /  0.0mm
00:19 54.3 °F /  12.4 °C 46.2 °F /  7.9 °C 30.3in /  1026.8hPa Sur 1.4mph /  2.2km/h 3.6mph /  5.8km/h 73.9% 0in /  0.0mm
00:24 54.1 °F /  12.3 °C 46 °F /  7.8 °C 30.3in /  1026.8hPa SSE 2.4mph /  3.8km/h 4.7mph /  7.6km/h 74% 0in /  0.0mm
00:29 54 °F /  12.2 °C 45.9 °F /  7.7 °C 30.3in /  1026.8hPa Sur 2.9mph /  4.6km/h 5mph /  8km/h 74% 0in /  0.0mm
00:34 54 °F /  12.2 °C 46 °F /  7.8 °C 30.3in /  1026.8hPa SSO 3mph /  4.8km/h 5.2mph /  8.4km/h 74.5% 0in /  0.0mm
00:39 54 °F /  12.2 °C 46.2 °F /  7.9 °C 30.3in /  1026.8hPa SSO 3.1mph /  5km/h 5mph /  8km/h 75% 0in /  0.0mm
00:44 54 °F /  12.2 °C 46.2 °F /  7.9 °C 30.3in /  1026.7hPa Sur 3mph /  4.8km/h 5mph /  8km/h 74.9% 0in /  0.0mm
00:49 53.8 °F /  12.1 °C 45.7 °F /  7.6 °C 30.3in /  1026.7hPa SSE 2.9mph /  4.6km/h 4.7mph /  7.6km/h 74.2% 0in /  0.0mm
00:54 53.6 °F /  12 °C 45.7 °F /  7.6 °C 30.3in /  1026.8hPa SSE 3mph /  4.9km/h 6.4mph /  10.3km/h 74.3% 0in /  0.0mm
00:59 53.2 °F /  11.8 °C 45.5 °F /  7.5 °C 30.3in /  1026.8hPa Sur 3.1mph /  5km/h 7mph /  11.3km/h 75% 0in /  0.0mm
01:04 53.1 °F /  11.7 °C 45.5 °F /  7.5 °C 30.3in /  1026.8hPa SSE 4.2mph /  6.7km/h 7mph /  11.3km/h 75.7% 0in /  0.0mm
01:09 52.7 °F /  11.5 °C 45.3 °F /  7.4 °C 30.3in /  1026.8hPa SSE 4.7mph /  7.6km/h 7mph /  11.3km/h 76% 0in /  0.0mm
01:14 52.5 °F /  11.4 °C 45.1 °F /  7.3 °C 30.3in /  1026.6hPa Sur 4.5mph /  7.2km/h 7mph /  11.3km/h 76% 0in /  0.0mm
01:19 52.3 °F /  11.3 °C 45.3 °F /  7.4 °C 30.3in /  1026.6hPa Sur 4.3mph /  6.9km/h 6.2mph /  10km/h 77% 0in /  0.0mm
01:24 52.3 °F /  11.3 °C 45.3 °F /  7.4 °C 30.3in /  1026.7hPa Sur 3.9mph /  6.2km/h 6mph /  9.7km/h 77% 0in /  0.0mm
01:29 52.5 °F /  11.4 °C 45.1 °F /  7.3 °C 30.3in /  1026.7hPa Sur 3.6mph /  5.8km/h 6mph /  9.7km/h 76% 0in /  0.0mm
01:34 52.7 °F /  11.5 °C 45.3 °F /  7.4 °C 30.3in /  1026.7hPa SSO 3.9mph /  6.2km/h 6.9mph /  11.1km/h 76% 0in /  0.0mm
01:39 53.1 °F /  11.7 °C 45.3 °F /  7.4 °C 30.3in /  1026.7hPa SO 4mph /  6.5km/h 7mph /  11.3km/h 74.9% 0in /  0.0mm
01:44 53.4 °F /  11.9 °C 45.3 °F /  7.4 °C 30.3in /  1026.7hPa SO 4mph /  6.5km/h 6.2mph /  10km/h 74% 0in /  0.0mm
01:49 53.6 °F /  12 °C 45.1 °F /  7.3 °C 30.3in /  1026.7hPa SO 4mph /  6.5km/h 6mph /  9.7km/h 73.1% 0in /  0.0mm
01:54 53.6 °F /  12 °C 45.1 °F /  7.3 °C 30.3in /  1026.7hPa SO 3.4mph /  5.5km/h 5mph /  8km/h 73% 0in /  0.0mm
01:59 53.6 °F /  12 °C 45 °F /  7.2 °C 30.3in /  1026.7hPa SSE 3.1mph /  5km/h 5mph /  8km/h 72.5% 0in /  0.0mm
02:04 52.9 °F /  11.6 °C 44.6 °F /  7 °C 30.3in /  1026.7hPa SSE 3mph /  4.8km/h 5mph /  8km/h 73.1% 0in /  0.0mm
02:09 52.2 °F /  11.2 °C 44.4 °F /  6.9 °C 30.3in /  1026.7hPa Sur 2.9mph /  4.7km/h 5mph /  8km/h 74.9% 0in /  0.0mm
02:14 51.8 °F /  11 °C 44.6 °F /  7 °C 30.3in /  1026.7hPa SSO 3mph /  4.9km/h 5mph /  8km/h 76.3% 0in /  0.0mm
02:19 51.6 °F /  10.9 °C 44.8 °F /  7.1 °C 30.3in /  1026.7hPa SO 3.1mph /  5km/h 5mph /  8km/h 77% 0in /  0.0mm
02:24 52 °F /  11.1 °C 44.8 °F /  7.1 °C 30.3in /  1026.7hPa OSO 2.7mph /  4.3km/h 6.2mph /  10km/h 76.4% 0in /  0.0mm
02:29 52.2 °F /  11.2 °C 44.6 °F /  7 °C 30.3in /  1026.7hPa OSO 2.4mph /  3.9km/h 6.9mph /  11.1km/h 75.5% 0in /  0.0mm
02:34 52.3 °F /  11.3 °C 44.6 °F /  7 °C 30.3in /  1026.7hPa SO 3.2mph /  5.1km/h 7mph /  11.3km/h 75% 0in /  0.0mm
02:39 52.5 °F /  11.4 °C 44.6 °F /  7 °C 30.3in /  1026.8hPa SO 3.6mph /  5.8km/h 5.2mph /  8.4km/h 74.4% 0in /  0.0mm
02:44 52.5 °F /  11.4 °C 44.6 °F /  7 °C 30.3in /  1026.8hPa SO 3.3mph /  5.3km/h 5mph /  8km/h 74% 0in /  0.0mm
02:49 52.7 °F /  11.5 °C 44.6 °F /  7 °C 30.3in /  1026.8hPa Sur 3.1mph /  5km/h 5mph /  8km/h 74% 0in /  0.0mm
02:54 52.3 °F /  11.3 °C 44.2 °F /  6.8 °C 30.3in /  1027.0hPa SSE 3.1mph /  5km/h 5.2mph /  8.4km/h 74.1% 0in /  0.0mm
02:59 51.6 °F /  10.9 °C 44.1 °F /  6.7 °C 30.3in /  1027.0hPa SSE 3.1mph /  5km/h 5mph /  8km/h 75.2% 0in /  0.0mm
03:04 51.4 °F /  10.8 °C 44.1 °F /  6.7 °C 30.3in /  1027.0hPa SSE 3.1mph /  5km/h 5mph /  8km/h 76% 0in /  0.0mm
03:09 51.1 °F /  10.6 °C 44.1 °F /  6.7 °C 30.3in /  1027.0hPa SSE 3.1mph /  5km/h 5.2mph /  8.4km/h 76.8% 0in /  0.0mm
03:14 50.7 °F /  10.4 °C 43.9 °F /  6.6 °C 30.3in /  1026.8hPa SSE 3.4mph /  5.5km/h 5.9mph /  9.5km/h 77.1% 0in /  0.0mm
03:19 50.4 °F /  10.2 °C 43.9 °F /  6.6 °C 30.3in /  1026.8hPa Sur 3.6mph /  5.8km/h 6mph /  9.7km/h 78% 0in /  0.0mm
03:24 50.4 °F /  10.2 °C 44.1 °F /  6.7 °C 30.3in /  1026.8hPa Sur 3.9mph /  6.2km/h 6.4mph /  10.3km/h 78.8% 0in /  0.0mm
03:29 50.4 °F /  10.2 °C 44.2 °F /  6.8 °C 30.3in /  1026.8hPa SO 4mph /  6.5km/h 7mph /  11.3km/h 79% 0in /  0.0mm
03:34 50.7 °F /  10.4 °C 44.2 °F /  6.8 °C 30.3in /  1026.8hPa SO 4mph /  6.5km/h 6mph /  9.7km/h 78.7% 0in /  0.0mm
03:39 51.1 °F /  10.6 °C 44.4 °F /  6.9 °C 30.3in /  1026.8hPa SO 4mph /  6.5km/h 6mph /  9.7km/h 78% 0in /  0.0mm
03:44 51.3 °F /  10.7 °C 44.4 °F /  6.9 °C 30.3in /  1026.8hPa SO 3.4mph /  5.4km/h 6mph /  9.7km/h 77.2% 0in /  0.0mm
03:49 51.3 °F /  10.7 °C 44.2 °F /  6.8 °C 30.3in /  1026.8hPa SO 2.9mph /  4.7km/h 4.6mph /  7.4km/h 77% 0in /  0.0mm
03:54 51.3 °F /  10.7 °C 44.2 °F /  6.8 °C 30.3in /  1026.8hPa SSO 2.9mph /  4.7km/h 5mph /  8km/h 77% 0in /  0.0mm
03:59 51.3 °F /  10.7 °C 44.2 °F /  6.8 °C 30.3in /  1026.8hPa Sur 2.9mph /  4.7km/h 5mph /  8km/h 77% 0in /  0.0mm
04:04 51.3 °F /  10.7 °C 44.2 °F /  6.8 °C 30.3in /  1026.8hPa SSE 2.9mph /  4.7km/h 5mph /  8km/h 77% 0in /  0.0mm
04:09 51.3 °F /  10.7 °C 44.2 °F /  6.8 °C 30.3in /  1026.8hPa SSE 2.9mph /  4.6km/h 5mph /  8km/h 77% 0in /  0.0mm
04:14 51.1 °F /  10.6 °C 44.1 °F /  6.7 °C 30.3in /  1026.7hPa SE 2.6mph /  4.2km/h 3.6mph /  5.8km/h 77% 0in /  0.0mm
04:19 50.7 °F /  10.4 °C 43.9 °F /  6.6 °C 30.3in /  1026.7hPa SE 2.4mph /  3.9km/h 4mph /  6.4km/h 77% 0in /  0.0mm
04:24 50.4 °F /  10.2 °C 43.7 °F /  6.5 °C 30.3in /  1026.7hPa SE 2.4mph /  3.9km/h 4.7mph /  7.6km/h 77.6% 0in /  0.0mm
04:29 50 °F /  10 °C 43.3 °F /  6.3 °C 30.3in /  1026.6hPa SSE 2.4mph /  3.9km/h 5.9mph /  9.5km/h 78% 0in /  0.0mm
04:34 49.6 °F /  9.8 °C 43.3 °F /  6.3 °C 30.3in /  1026.6hPa SSE 3.2mph /  5.1km/h 6mph /  9.7km/h 79% 0in /  0.0mm
04:39 49.5 °F /  9.7 °C 43.5 °F /  6.4 °C 30.3in /  1026.6hPa SSE 3.6mph /  5.8km/h 5.9mph /  9.5km/h 80% 0in /  0.0mm
04:44 49.3 °F /  9.6 °C 43.3 °F /  6.3 °C 30.3in /  1026.6hPa SSE 3.9mph /  6.2km/h 6mph /  9.7km/h 80% 0in /  0.0mm
04:49 49.3 °F /  9.6 °C 43.3 °F /  6.3 °C 30.3in /  1026.6hPa Sur 4mph /  6.5km/h 5mph /  8km/h 80% 0in /  0.0mm
04:54 49.3 °F /  9.6 °C 43.3 °F /  6.3 °C 30.3in /  1026.6hPa Sur 3.7mph /  6km/h 5.2mph /  8.4km/h 80% 0in /  0.0mm
04:59 49.3 °F /  9.6 °C 43.5 °F /  6.4 °C 30.3in /  1026.6hPa Sur 3.6mph /  5.8km/h 5mph /  8km/h 80.2% 0in /  0.0mm
05:04 49.3 °F /  9.6 °C 43.3 °F /  6.3 °C 30.3in /  1026.6hPa SSE 3.6mph /  5.8km/h 5mph /  8km/h 80% 0in /  0.0mm
05:09 49.3 °F /  9.6 °C 43.5 °F /  6.4 °C 30.3in /  1026.6hPa SSE 3.6mph /  5.8km/h 5mph /  8km/h 80% 0in /  0.0mm
05:14 49.3 °F /  9.6 °C 43.3 °F /  6.3 °C 30.3in /  1026.5hPa SSE 3.2mph /  5.1km/h 5mph /  8km/h 80% 0in /  0.0mm
05:19 48.9 °F /  9.4 °C 43.2 °F /  6.2 °C 30.3in /  1026.5hPa Sur 2.9mph /  4.6km/h 5.2mph /  8.4km/h 80% 0in /  0.0mm
05:24 48.9 °F /  9.4 °C 43 °F /  6.1 °C 30.3in /  1026.5hPa Sur 3mph /  4.8km/h 5.2mph /  8.4km/h 80% 0in /  0.0mm
05:29 48.9 °F /  9.4 °C 43.3 °F /  6.3 °C 30.3in /  1026.4hPa Sur 3.1mph /  5km/h 5mph /  8km/h 80.9% 0in /  0.0mm
05:34 48.9 °F /  9.4 °C 43.2 °F /  6.2 °C 30.3in /  1026.4hPa SSE 3mph /  4.8km/h 5mph /  8km/h 80.1% 0in /  0.0mm
05:39 48.9 °F /  9.4 °C 43 °F /  6.1 °C 30.3in /  1026.5hPa Sur 2.9mph /  4.6km/h 5mph /  8km/h 80% 0in /  0.0mm
05:44 48.9 °F /  9.4 °C 43 °F /  6.1 °C 30.3in /  1026.5hPa SSE 2.9mph /  4.7km/h 5mph /  8km/h 80% 0in /  0.0mm
05:49 48.6 °F /  9.2 °C 42.8 °F /  6 °C 30.3in /  1026.5hPa SSE 2.9mph /  4.7km/h 5mph /  8km/h 80.2% 0in /  0.0mm
05:54 48.6 °F /  9.2 °C 43 °F /  6.1 °C 30.3in /  1026.5hPa SSE 3mph /  4.8km/h 5mph /  8km/h 81% 0in /  0.0mm
05:59 48.6 °F /  9.2 °C 43 °F /  6.1 °C 30.3in /  1026.5hPa SE 3.1mph /  5km/h 5mph /  8km/h 81% 0in /  0.0mm
06:04 48.4 °F /  9.1 °C 42.8 °F /  6 °C 30.3in /  1026.5hPa SE 3mph /  4.8km/h 5mph /  8km/h 81% 0in /  0.0mm
06:09 48 °F /  8.9 °C 42.4 °F /  5.8 °C 30.3in /  1026.5hPa SE 2.9mph /  4.6km/h 5mph /  8km/h 81% 0in /  0.0mm
06:14 47.8 °F /  8.8 °C 42.3 °F /  5.7 °C 30.3in /  1026.4hPa SSE 2.9mph /  4.7km/h 5mph /  8km/h 81.2% 0in /  0.0mm
06:19 47.7 °F /  8.7 °C 42.4 °F /  5.8 °C 30.3in /  1026.4hPa SSE 2.9mph /  4.7km/h 5.2mph /  8.4km/h 82% 0in /  0.0mm
06:24 47.5 °F /  8.6 °C 42.3 °F /  5.7 °C 30.3in /  1026.6hPa SSE 3.3mph /  5.3km/h 6.2mph /  10km/h 82% 0in /  0.0mm
06:29 47.5 °F /  8.6 °C 42.3 °F /  5.7 °C 30.3in /  1026.6hPa SSE 3.6mph /  5.8km/h 6.2mph /  10km/h 82% 0in /  0.0mm
06:34 47.5 °F /  8.6 °C 42.4 °F /  5.8 °C 30.3in /  1026.6hPa Sur 4mph /  6.5km/h 6mph /  9.7km/h 82.7% 0in /  0.0mm
06:39 47.5 °F /  8.6 °C 42.6 °F /  5.9 °C 30.3in /  1026.6hPa Sur 4.3mph /  6.9km/h 6mph /  9.7km/h 83% 0in /  0.0mm
06:44 47.7 °F /  8.7 °C 42.8 °F /  6 °C 30.3in /  1026.6hPa Sur 3.9mph /  6.2km/h 5.8mph /  9.3km/h 82.9% 0in /  0.0mm
06:49 47.8 °F /  8.8 °C 42.6 °F /  5.9 °C 30.3in /  1026.6hPa Sur 3.6mph /  5.8km/h 6mph /  9.7km/h 82% 0in /  0.0mm
06:54 48 °F /  8.9 °C 42.8 °F /  6 °C 30.3in /  1026.7hPa Sur 3.6mph /  5.8km/h 5.9mph /  9.5km/h 81.8% 0in /  0.0mm
06:59 48 °F /  8.9 °C 42.4 °F /  5.8 °C 30.3in /  1026.7hPa Sur 3.6mph /  5.8km/h 6.2mph /  10km/h 81% 0in /  0.0mm
07:04 48 °F /  8.9 °C 42.6 °F /  5.9 °C 30.3in /  1026.7hPa Sur 4mph /  6.5km/h 6.4mph /  10.3km/h 81% 0in /  0.0mm
07:09 48.2 °F /  9 °C 42.6 °F /  5.9 °C 30.3in /  1026.9hPa Sur 4.3mph /  6.9km/h 7mph /  11.3km/h 81% 0in /  0.0mm
07:14 48.2 °F /  9 °C 42.6 °F /  5.9 °C 30.3in /  1026.9hPa Sur 4.5mph /  7.3km/h 7mph /  11.3km/h 81% 0in /  0.0mm
07:19 48 °F /  8.9 °C 42.4 °F /  5.8 °C 30.3in /  1026.9hPa Sur 4.7mph /  7.6km/h 7mph /  11.3km/h 81% 0in /  0.0mm
07:24 48 °F /  8.9 °C 42.4 °F /  5.8 °C 30.3in /  1027.1hPa SSE 4.5mph /  7.2km/h 7mph /  11.3km/h 81% 0in /  0.0mm
07:29 47.8 °F /  8.8 °C 42.3 °F /  5.7 °C 30.3in /  1027.1hPa SSE 4.3mph /  6.9km/h 6mph /  9.7km/h 81% 0in /  0.0mm
07:34 47.8 °F /  8.8 °C 42.3 °F /  5.7 °C 30.3in /  1027.1hPa Sur 3.9mph /  6.2km/h 5.8mph /  9.3km/h 81% 0in /  0.0mm
07:39 47.7 °F /  8.7 °C 42.1 °F /  5.6 °C 30.3in /  1027.4hPa Sur 3.6mph /  5.8km/h 6.2mph /  10km/h 81% 0in /  0.0mm
07:44 47.7 °F /  8.7 °C 42.3 °F /  5.7 °C 30.3in /  1027.4hPa Sur 3.9mph /  6.2km/h 6mph /  9.7km/h 81.4% 0in /  0.0mm
07:49 47.8 °F /  8.8 °C 42.4 °F /  5.8 °C 30.3in /  1027.4hPa Sur 4mph /  6.5km/h 6.2mph /  10km/h 81.6% 0in /  0.0mm
07:54 48 °F /  8.9 °C 42.4 °F /  5.8 °C 30.3in /  1027.6hPa Sur 4mph /  6.5km/h 6mph /  9.7km/h 81% 0in /  0.0mm
07:59 48 °F /  8.9 °C 42.3 °F /  5.7 °C 30.3in /  1027.6hPa Sur 4mph /  6.5km/h 5.9mph /  9.5km/h 80.4% 0in /  0.0mm
08:04 48 °F /  8.9 °C 42.1 °F /  5.6 °C 30.3in /  1027.6hPa Sur 4mph /  6.5km/h 6.2mph /  10km/h 80% 0in /  0.0mm
08:09 48 °F /  8.9 °C 42.1 °F /  5.6 °C 30.4in /  1027.7hPa SSE 4mph /  6.5km/h 6mph /  9.7km/h 80% 0in /  0.0mm
08:14 47.8 °F /  8.8 °C 41.9 °F /  5.5 °C 30.4in /  1027.7hPa SE 4mph /  6.5km/h 6mph /  9.7km/h 80% 0in /  0.0mm
08:19 47.3 °F /  8.5 °C 41.5 °F /  5.3 °C 30.4in /  1027.7hPa SSE 4mph /  6.5km/h 5.9mph /  9.5km/h 80.1% 0in /  0.0mm
08:24 46.8 °F /  8.2 °C 41.2 °F /  5.1 °C 30.4in /  1027.8hPa SSE 4mph /  6.5km/h 6.2mph /  10km/h 81% 0in /  0.0mm
08:29 46.4 °F /  8 °C 41.2 °F /  5.1 °C 30.4in /  1027.8hPa SSE 4mph /  6.5km/h 6mph /  9.7km/h 82% 0in /  0.0mm
08:34 46 °F /  7.8 °C 41.2 °F /  5.1 °C 30.4in /  1027.8hPa SSE 4mph /  6.5km/h 6mph /  9.7km/h 82.9% 0in /  0.0mm
08:39 46 °F /  7.8 °C 41.4 °F /  5.2 °C 30.4in /  1027.9hPa SE 4mph /  6.5km/h 5.9mph /  9.5km/h 83.5% 0in /  0.0mm
08:44 46 °F /  7.8 °C 41.5 °F /  5.3 °C 30.4in /  1027.9hPa SSE 3.4mph /  5.5km/h 6mph /  9.7km/h 84% 0in /  0.0mm
08:49 46.4 °F /  8 °C 41.9 °F /  5.5 °C 30.4in /  1027.9hPa SSE 3.1mph /  5km/h 6mph /  9.7km/h 84% 0in /  0.0mm
08:54 46.8 °F /  8.2 °C 42.1 °F /  5.6 °C 30.4in /  1028.0hPa SSO 3.1mph /  5km/h 5mph /  8km/h 83.3% 0in /  0.0mm
08:59 47.3 °F /  8.5 °C 42.3 °F /  5.7 °C 30.4in /  1028.0hPa SSO 3.1mph /  5km/h 5.2mph /  8.4km/h 82.6% 0in /  0.0mm
09:04 47.8 °F /  8.8 °C 42.4 °F /  5.8 °C 30.4in /  1028.0hPa SSO 3.1mph /  5km/h 5mph /  8km/h 81.6% 0in /  0.0mm
09:09 48.4 °F /  9.1 °C 42.8 °F /  6 °C 30.4in /  1028.0hPa SSO 3.1mph /  5km/h 5mph /  8km/h 81% 0in /  0.0mm
09:14 49.1 °F /  9.5 °C 43.2 °F /  6.2 °C 30.4in /  1028.0hPa SSE 2.1mph /  3.3km/h 3mph /  4.8km/h 80% 0in /  0.0mm
09:19 50 °F /  10 °C 43.3 °F /  6.3 °C 30.4in /  1028.0hPa SE 1.4mph /  2.2km/h 4mph /  6.4km/h 78% 0in /  0.0mm
09:24 50.4 °F /  10.2 °C 43.2 °F /  6.2 °C 30.4in /  1028.2hPa Sur 1.7mph /  2.8km/h 5mph /  8km/h 76% 0in /  0.0mm
09:29 50.5 °F /  10.3 °C 43.3 °F /  6.3 °C 30.4in /  1028.2hPa Sur 2mph /  3.2km/h 5.2mph /  8.4km/h 76% 0in /  0.0mm
09:34 50.7 °F /  10.4 °C 43.2 °F /  6.2 °C 30.4in /  1028.2hPa SSO 2.7mph /  4.3km/h 5.2mph /  8.4km/h 75.3% 0in /  0.0mm
09:39 50.9 °F /  10.5 °C 43.3 °F /  6.3 °C 30.4in /  1028.2hPa Sur 3.1mph /  5km/h 5mph /  8km/h 75.5% 0in /  0.0mm
09:44 51.3 °F /  10.7 °C 43.5 °F /  6.4 °C 30.4in /  1028.2hPa SSO 3mph /  4.8km/h 5.8mph /  9.3km/h 75% 0in /  0.0mm
09:49 51.4 °F /  10.8 °C 43.7 °F /  6.5 °C 30.4in /  1028.2hPa SO 2.9mph /  4.6km/h 6.2mph /  10km/h 74.7% 0in /  0.0mm
09:54 52 °F /  11.1 °C 43.7 °F /  6.5 °C 30.4in /  1028.3hPa SO 3.4mph /  5.4km/h 8.1mph /  13km/h 73.3% 0in /  0.0mm
09:59 52.3 °F /  11.3 °C 43.5 °F /  6.4 °C 30.4in /  1028.3hPa SSO 3.6mph /  5.8km/h 8mph /  12.9km/h 71.8% 0in /  0.0mm
10:04 53.1 °F /  11.7 °C 43.7 °F /  6.5 °C 30.4in /  1028.3hPa SSO 3.9mph /  6.2km/h 7mph /  11.3km/h 70.8% 0in /  0.0mm
10:09 53.4 °F /  11.9 °C 43.9 °F /  6.6 °C 30.4in /  1028.4hPa Sur 4mph /  6.5km/h 6mph /  9.7km/h 69.6% 0in /  0.0mm
10:14 54 °F /  12.2 °C 43.9 °F /  6.6 °C 30.4in /  1028.4hPa Sur 3.8mph /  6.1km/h 6mph /  9.7km/h 68.5% 0in /  0.0mm
10:19 54.5 °F /  12.5 °C 43.9 °F /  6.6 °C 30.4in /  1028.4hPa SSO 3.6mph /  5.8km/h 7.4mph /  11.9km/h 67.3% 0in /  0.0mm
10:24 54.9 °F /  12.7 °C 43.7 °F /  6.5 °C 30.4in /  1028.5hPa SSO 4mph /  6.5km/h 8.5mph /  13.7km/h 66.4% 0in /  0.0mm
10:29 55 °F /  12.8 °C 43.9 °F /  6.6 °C 30.4in /  1028.5hPa SSO 4.3mph /  6.9km/h 9mph /  14.5km/h 66% 0in /  0.0mm
10:34 55.4 °F /  13 °C 43.9 °F /  6.6 °C 30.4in /  1028.5hPa SO 4.5mph /  7.3km/h 9.2mph /  14.8km/h 65.4% 0in /  0.0mm
10:39 55.8 °F /  13.2 °C 44.1 °F /  6.7 °C 30.4in /  1028.6hPa SO 4.7mph /  7.6km/h 9mph /  14.5km/h 64.7% 0in /  0.0mm
10:44 56.1 °F /  13.4 °C 43.9 °F /  6.6 °C 30.4in /  1028.6hPa SO 4.2mph /  6.8km/h 9.7mph /  15.6km/h 63.3% 0in /  0.0mm
10:49 56.3 °F /  13.5 °C 43.5 °F /  6.4 °C 30.4in /  1028.6hPa OSO 4mph /  6.5km/h 10mph /  16.1km/h 62.2% 0in /  0.0mm
10:54 56.5 °F /  13.6 °C 43.9 °F /  6.6 °C 30.4in /  1028.8hPa SO 4.7mph /  7.6km/h 9mph /  14.5km/h 62.9% 0in /  0.0mm
10:59 56.5 °F /  13.6 °C 44.1 °F /  6.7 °C 30.4in /  1028.8hPa OSO 5.2mph /  8.4km/h 7.6mph /  12.2km/h 63% 0in /  0.0mm
11:04 56.8 °F /  13.8 °C 43.9 °F /  6.6 °C 30.4in /  1028.8hPa OSO 4.9mph /  7.9km/h 9.2mph /  14.8km/h 62% 0in /  0.0mm
11:09 57 °F /  13.9 °C 44.1 °F /  6.7 °C 30.4in /  1028.8hPa OSO 4.7mph /  7.6km/h 9mph /  14.5km/h 61.8% 0in /  0.0mm
11:14 57.2 °F /  14 °C 44.2 °F /  6.8 °C 30.4in /  1028.7hPa OSO 4.7mph /  7.6km/h 8mph /  12.9km/h 62% 0in /  0.0mm
11:19 57.6 °F /  14.2 °C 44.4 °F /  6.9 °C 30.4in /  1028.7hPa OSO 4.7mph /  7.6km/h 7mph /  11.3km/h 61.8% 0in /  0.0mm
11:24 57.9 °F /  14.4 °C 44.4 °F /  6.9 °C 30.4in /  1028.7hPa OSO 4mph /  6.4km/h 6.9mph /  11.1km/h 60.7% 0in /  0.0mm
11:29 58.5 °F /  14.7 °C 44.4 °F /  6.9 °C 30.4in /  1028.6hPa SO 3.6mph /  5.8km/h 7mph /  11.3km/h 60.1% 0in /  0.0mm
11:34 58.6 °F /  14.8 °C 44.6 °F /  7 °C 30.4in /  1028.6hPa OSO 3.3mph /  5.3km/h 5mph /  8km/h 59.5% 0in /  0.0mm
11:39 59.2 °F /  15.1 °C 44.8 °F /  7.1 °C 30.4in /  1028.6hPa SO 3.1mph /  5km/h 6.2mph /  10km/h 59% 0in /  0.0mm
11:44 59.5 °F /  15.3 °C 44.6 °F /  7 °C 30.4in /  1028.4hPa SO 3.4mph /  5.5km/h 9.2mph /  14.8km/h 57.8% 0in /  0.0mm
11:49 59.7 °F /  15.4 °C 44.4 °F /  6.9 °C 30.4in /  1028.4hPa SO 3.6mph /  5.8km/h 9.2mph /  14.8km/h 56.9% 0in /  0.0mm
11:54 60.3 °F /  15.7 °C 45 °F /  7.2 °C 30.4in /  1028.4hPa SO 5mph /  8.1km/h 9mph /  14.5km/h 57% 0in /  0.0mm
11:59 60.6 °F /  15.9 °C 45.1 °F /  7.3 °C 30.4in /  1028.1hPa SSO 5.9mph /  9.5km/h 8.5mph /  13.7km/h 56.5% 0in /  0.0mm
12:04 61.2 °F /  16.2 °C 45.1 °F /  7.3 °C 30.4in /  1028.1hPa SSO 4.8mph /  7.7km/h 10.2mph /  16.4km/h 55.5% 0in /  0.0mm
12:09 61.2 °F /  16.2 °C 45 °F /  7.2 °C 30.4in /  1028.1hPa SSO 4.3mph /  6.9km/h 10.4mph /  16.7km/h 55% 0in /  0.0mm
12:14 61.3 °F /  16.3 °C 45.5 °F /  7.5 °C 30.4in /  1027.9hPa SO 5.3mph /  8.5km/h 9.2mph /  14.8km/h 55.9% 0in /  0.0mm
12:19 61.5 °F /  16.4 °C 45.5 °F /  7.5 °C 30.4in /  1027.9hPa SO 5.9mph /  9.5km/h 10.7mph /  17.2km/h 55.8% 0in /  0.0mm
12:24 61.9 °F /  16.6 °C 46 °F /  7.8 °C 30.4in /  1027.9hPa SSO 6.2mph /  10km/h 11mph /  17.7km/h 56% 0in /  0.0mm
12:29 62.2 °F /  16.8 °C 46.2 °F /  7.9 °C 30.3in /  1027.5hPa SO 6.4mph /  10.3km/h 9mph /  14.5km/h 56% 0in /  0.0mm
12:34 62.8 °F /  17.1 °C 46.6 °F /  8.1 °C 30.3in /  1027.5hPa SO 5mph /  8.1km/h 8mph /  12.9km/h 55.7% 0in /  0.0mm
12:39 63.1 °F /  17.3 °C 46.6 °F /  8.1 °C 30.3in /  1027.5hPa OSO 4.3mph /  6.9km/h 8.7mph /  14km/h 54.9% 0in /  0.0mm
12:44 63.3 °F /  17.4 °C 46.4 °F /  8 °C 30.3in /  1027.3hPa OSO 4.6mph /  7.4km/h 10.4mph /  16.7km/h 54% 0in /  0.0mm
12:49 63.5 °F /  17.5 °C 46.8 °F /  8.2 °C 30.3in /  1027.3hPa OSO 4.7mph /  7.6km/h 10mph /  16.1km/h 54.4% 0in /  0.0mm
12:54 63.9 °F /  17.7 °C 46.9 °F /  8.3 °C 30.3in /  1027.3hPa OSO 5.5mph /  8.8km/h 9.2mph /  14.8km/h 54% 0in /  0.0mm
12:59 64.2 °F /  17.9 °C 47.3 °F /  8.5 °C 30.3in /  1026.9hPa SO 5.9mph /  9.5km/h 9mph /  14.5km/h 54% 0in /  0.0mm
13:04 64.8 °F /  18.2 °C 47.7 °F /  8.7 °C 30.3in /  1026.9hPa OSO 4.4mph /  7.1km/h 6.2mph /  10km/h 54% 0in /  0.0mm
13:09 65.1 °F /  18.4 °C 47.8 °F /  8.8 °C 30.3in /  1026.9hPa SO 3.6mph /  5.8km/h 7.6mph /  12.2km/h 53.8% 0in /  0.0mm
13:14 65.5 °F /  18.6 °C 47.8 °F /  8.8 °C 30.3in /  1026.7hPa OSO 3.9mph /  6.2km/h 8.1mph /  13km/h 53% 0in /  0.0mm
13:19 65.7 °F /  18.7 °C 48.2 °F /  9 °C 30.3in /  1026.7hPa SSO 4mph /  6.5km/h 8.5mph /  13.7km/h 53.1% 0in /  0.0mm
13:24 65.8 °F /  18.8 °C 48.4 °F /  9.1 °C 30.3in /  1026.7hPa SSO 4.5mph /  7.2km/h 9mph /  14.5km/h 53% 0in /  0.0mm
13:29 66.4 °F /  19.1 °C 48.6 °F /  9.2 °C 30.3in /  1026.4hPa Sur 4.7mph /  7.6km/h 9mph /  14.5km/h 52.9% 0in /  0.0mm
13:34 66.7 °F /  19.3 °C 48.6 °F /  9.2 °C 30.3in /  1026.4hPa Sur 4.7mph /  7.6km/h 8.1mph /  13km/h 52.2% 0in /  0.0mm
13:39 66.7 °F /  19.3 °C 48.6 °F /  9.2 °C 30.3in /  1026.4hPa SSO 4.7mph /  7.6km/h 8mph /  12.9km/h 52% 0in /  0.0mm
13:44 67.3 °F /  19.6 °C 48.9 °F /  9.4 °C 30.3in /  1026.2hPa Sur 4.3mph /  6.9km/h 6.9mph /  11.1km/h 52% 0in /  0.0mm
13:49 67.5 °F /  19.7 °C 48.9 °F /  9.4 °C 30.3in /  1026.2hPa SSO 4mph /  6.5km/h 9.2mph /  14.8km/h 51.6% 0in /  0.0mm
13:54 67.5 °F /  19.7 °C 49.1 °F /  9.5 °C 30.3in /  1026.2hPa Sur 4.9mph /  7.9km/h 9mph /  14.5km/h 51.6% 0in /  0.0mm
13:59 67.6 °F /  19.8 °C 48.9 °F /  9.4 °C 30.3in /  1025.8hPa Sur 5.4mph /  8.7km/h 8.1mph /  13km/h 51.1% 0in /  0.0mm
14:04 68 °F /  20 °C 49.3 °F /  9.6 °C 30.3in /  1025.8hPa Sur 4.5mph /  7.2km/h 7.6mph /  12.2km/h 51% 0in /  0.0mm
14:09 68.4 °F /  20.2 °C 49.5 °F /  9.7 °C 30.3in /  1025.8hPa Sur 4mph /  6.5km/h 8.1mph /  13km/h 50.7% 0in /  0.0mm
14:14 68.5 °F /  20.3 °C 49.3 °F /  9.6 °C 30.3in /  1025.5hPa SSO 4.2mph /  6.8km/h 8mph /  12.9km/h 50.2% 0in /  0.0mm
14:19 68.5 °F /  20.3 °C 49.3 °F /  9.6 °C 30.3in /  1025.5hPa SSO 4.3mph /  6.9km/h 6.9mph /  11.1km/h 50% 0in /  0.0mm
14:24 68.7 °F /  20.4 °C 49.3 °F /  9.6 °C 30.3in /  1025.5hPa SSO 4.3mph /  6.9km/h 8.1mph /  13km/h 50% 0in /  0.0mm
14:29 69.1 °F /  20.6 °C 49.5 °F /  9.7 °C 30.3in /  1025.2hPa SSO 4.3mph /  6.9km/h 8.1mph /  13km/h 49.6% 0in /  0.0mm
14:34 69.4 °F /  20.8 °C 49.5 °F /  9.7 °C 30.3in /  1025.2hPa SSO 4.8mph /  7.8km/h 8mph /  12.9km/h 49.1% 0in /  0.0mm
14:39 69.6 °F /  20.9 °C 49.5 °F /  9.7 °C 30.3in /  1025.2hPa SSO 5.2mph /  8.4km/h 8.1mph /  13km/h 48.9% 0in /  0.0mm
14:44 69.8 °F /  21 °C 49.6 °F /  9.8 °C 30.3in /  1025.0hPa SSO 4.6mph /  7.4km/h 8mph /  12.9km/h 48.7% 0in /  0.0mm
14:49 70 °F /  21.1 °C 49.6 °F /  9.8 °C 30.3in /  1025.0hPa SSO 4.3mph /  6.9km/h 6.9mph /  11.1km/h 48.4% 0in /  0.0mm
14:54 70.2 °F /  21.2 °C 49.6 °F /  9.8 °C 30.3in /  1025.0hPa SSO 4.1mph /  6.6km/h 7mph /  11.3km/h 48.2% 0in /  0.0mm
14:59 70.3 °F /  21.3 °C 49.8 °F /  9.9 °C 30.3in /  1024.8hPa SSO 4mph /  6.5km/h 5.9mph /  9.5km/h 48% 0in /  0.0mm
15:04 70.7 °F /  21.5 °C 50 °F /  10 °C 30.3in /  1024.8hPa SSO 4mph /  6.5km/h 9.2mph /  14.8km/h 47.9% 0in /  0.0mm
15:09 70.9 °F /  21.6 °C 49.6 °F /  9.8 °C 30.3in /  1024.8hPa SSO 4mph /  6.5km/h 9mph /  14.5km/h 47.1% 0in /  0.0mm
15:14 71.1 °F /  21.7 °C 49.8 °F /  9.9 °C 30.3in /  1024.6hPa SO 4mph /  6.5km/h 8mph /  12.9km/h 47% 0in /  0.0mm
15:19 71.2 °F /  21.8 °C 49.6 °F /  9.8 °C 30.3in /  1024.6hPa SO 4mph /  6.5km/h 7.4mph /  11.9km/h 46.1% 0in /  0.0mm
15:24 71.6 °F /  22 °C 49.6 °F /  9.8 °C 30.3in /  1024.6hPa SO 3.8mph /  6.1km/h 7.4mph /  11.9km/h 45.8% 0in /  0.0mm
15:29 71.8 °F /  22.1 °C 49.6 °F /  9.8 °C 30.3in /  1024.5hPa OSO 3.6mph /  5.8km/h 7mph /  11.3km/h 45.6% 0in /  0.0mm
15:34 72 °F /  22.2 °C 49.6 °F /  9.8 °C 30.3in /  1024.5hPa SO 4mph /  6.5km/h 8.1mph /  13km/h 45.5% 0in /  0.0mm
15:39 72 °F /  22.2 °C 49.8 °F /  9.9 °C 30.3in /  1024.5hPa SSO 4.3mph /  6.9km/h 8mph /  12.9km/h 45.6% 0in /  0.0mm
15:44 72.1 °F /  22.3 °C 49.6 °F /  9.8 °C 30.3in /  1024.4hPa OSO 3.9mph /  6.2km/h 8.1mph /  13km/h 44.9% 0in /  0.0mm
15:49 72.3 °F /  22.4 °C 49.3 °F /  9.6 °C 30.3in /  1024.4hPa OSO 3.6mph /  5.8km/h 8.1mph /  13km/h 44.1% 0in /  0.0mm
15:54 72.5 °F /  22.5 °C 49.3 °F /  9.6 °C 30.3in /  1024.4hPa SO 3.9mph /  6.2km/h 6mph /  9.7km/h 44% 0in /  0.0mm
15:59 72.7 °F /  22.6 °C 49.5 °F /  9.7 °C 30.3in /  1024.3hPa SO 4mph /  6.5km/h 6.9mph /  11.1km/h 44% 0in /  0.0mm
16:04 72.7 °F /  22.6 °C 49.5 °F /  9.7 °C 30.3in /  1024.3hPa OSO 3.7mph /  6km/h 7mph /  11.3km/h 44% 0in /  0.0mm
16:09 72.7 °F /  22.6 °C 49.5 °F /  9.7 °C 30.3in /  1024.3hPa OSO 3.6mph /  5.8km/h 7.4mph /  11.9km/h 44% 0in /  0.0mm
16:14 72.7 °F /  22.6 °C 49.5 °F /  9.7 °C 30.2in /  1024.2hPa OSO 3.9mph /  6.2km/h 7mph /  11.3km/h 44% 0in /  0.0mm
16:19 72.9 °F /  22.7 °C 49.6 °F /  9.8 °C 30.2in /  1024.2hPa OSO 4mph /  6.5km/h 6.2mph /  10km/h 44% 0in /  0.0mm
16:24 72.9 °F /  22.7 °C 49.6 °F /  9.8 °C 30.2in /  1024.2hPa SO 3.7mph /  6km/h 8.1mph /  13km/h 43.7% 0in /  0.0mm
16:29 72.9 °F /  22.7 °C 49.1 °F /  9.5 °C 30.2in /  1024.2hPa SO 3.6mph /  5.8km/h 8.1mph /  13km/h 43% 0in /  0.0mm
16:34 72.9 °F /  22.7 °C 49.1 °F /  9.5 °C 30.2in /  1024.2hPa SO 4mph /  6.5km/h 7.4mph /  11.9km/h 43% 0in /  0.0mm
16:39 72.9 °F /  22.7 °C 49.3 °F /  9.6 °C 30.2in /  1024.2hPa OSO 4.3mph /  6.9km/h 8.1mph /  13km/h 43.2% 0in /  0.0mm
16:44 72.7 °F /  22.6 °C 49.6 °F /  9.8 °C 30.2in /  1024.1hPa OSO 4.5mph /  7.3km/h 8mph /  12.9km/h 44% 0in /  0.0mm
16:49 72.7 °F /  22.6 °C 49.5 °F /  9.7 °C 30.2in /  1024.1hPa OSO 4.7mph /  7.6km/h 6mph /  9.7km/h 44% 0in /  0.0mm
16:54 72.9 °F /  22.7 °C 49.3 °F /  9.6 °C 30.2in /  1024.1hPa OSO 3.7mph /  5.9km/h 5.2mph /  8.4km/h 43.3% 0in /  0.0mm
16:59 72.9 °F /  22.7 °C 49.5 °F /  9.7 °C 30.2in /  1024.1hPa OSO 3.1mph /  5km/h 5.8mph /  9.3km/h 43.7% 0in /  0.0mm
17:04 72.7 °F /  22.6 °C 49.5 °F /  9.7 °C 30.2in /  1024.1hPa OSO 3.1mph /  5km/h 6mph /  9.7km/h 44% 0in /  0.0mm
17:09 72.7 °F /  22.6 °C 49.5 °F /  9.7 °C 30.2in /  1024.1hPa OSO 3.1mph /  5km/h 5mph /  8km/h 44% 0in /  0.0mm
17:14 72.7 °F /  22.6 °C 49.5 °F /  9.7 °C 30.2in /  1024.0hPa OSO 3mph /  4.8km/h 5mph /  8km/h 44% 0in /  0.0mm
17:19 72.3 °F /  22.4 °C 49.3 °F /  9.6 °C 30.2in /  1024.0hPa Oeste 2.9mph /  4.7km/h 5mph /  8km/h 44.1% 0in /  0.0mm
17:24 72.1 °F /  22.3 °C 49.6 °F /  9.8 °C 30.2in /  1024.0hPa Oeste 2.5mph /  4.1km/h 5mph /  8km/h 45% 0in /  0.0mm
17:29 72 °F /  22.2 °C 49.5 °F /  9.7 °C 30.2in /  1024.0hPa Oeste 2.4mph /  3.9km/h 4mph /  6.4km/h 45% 0in /  0.0mm
17:34 71.8 °F /  22.1 °C 49.3 °F /  9.6 °C 30.2in /  1024.0hPa Oeste 2.4mph /  3.9km/h 4.6mph /  7.4km/h 45% 0in /  0.0mm
17:39 71.6 °F /  22 °C 49.6 °F /  9.8 °C 30.2in /  1024.0hPa Oeste 2.4mph /  3.9km/h 5mph /  8km/h 45.8% 0in /  0.0mm
17:44 71.2 °F /  21.8 °C 49.5 °F /  9.7 °C 30.2in /  1023.9hPa Oeste 2.4mph /  3.9km/h 4mph /  6.4km/h 46% 0in /  0.0mm
17:49 70.9 °F /  21.6 °C 49.6 °F /  9.8 °C 30.2in /  1023.9hPa Oeste 2.4mph /  3.9km/h 3mph /  4.8km/h 46.9% 0in /  0.0mm
17:54 70.3 °F /  21.3 °C 49.5 °F /  9.7 °C 30.2in /  1023.9hPa Oeste 2mph /  3.2km/h 3.5mph /  5.6km/h 47.4% 0in /  0.0mm
17:59 70.2 °F /  21.2 °C 49.5 °F /  9.7 °C 30.2in /  1023.9hPa Oeste 1.8mph /  2.9km/h 3.5mph /  5.6km/h 48% 0in /  0.0mm
18:04 69.8 °F /  21 °C 49.5 °F /  9.7 °C 30.2in /  1023.9hPa OSO 1.9mph /  3.1km/h 3.5mph /  5.6km/h 48.6% 0in /  0.0mm
18:09 69.4 °F /  20.8 °C 49.8 °F /  9.9 °C 30.2in /  1023.9hPa SO 2mph /  3.2km/h 4.6mph /  7.4km/h 49.7% 0in /  0.0mm
18:14 69.1 °F /  20.6 °C 50 °F /  10 °C 30.2in /  1023.9hPa SSO 2.6mph /  4.2km/h 5mph /  8km/h 50.7% 0in /  0.0mm
18:19 68.5 °F /  20.3 °C 50.2 °F /  10.1 °C 30.2in /  1023.9hPa SSE 2.9mph /  4.7km/h 4.7mph /  7.6km/h 52% 0in /  0.0mm
18:24 67.8 °F /  19.9 °C 50.4 °F /  10.2 °C 30.2in /  1024.0hPa SSE 2.9mph /  4.7km/h 5.2mph /  8.4km/h 53.5% 0in /  0.0mm
18:29 67.1 °F /  19.5 °C 50.2 °F /  10.1 °C 30.2in /  1024.0hPa Sur 2.9mph /  4.7km/h 5mph /  8km/h 54.5% 0in /  0.0mm
18:34 66.7 °F /  19.3 °C 50.2 °F /  10.1 °C 30.2in /  1024.0hPa SSE 3.4mph /  5.4km/h 5.2mph /  8.4km/h 55.3% 0in /  0.0mm
18:39 66.6 °F /  19.2 °C 50.4 °F /  10.2 °C 30.2in /  1024.0hPa SE 3.6mph /  5.8km/h 5mph /  8km/h 56% 0in /  0.0mm
18:44 66 °F /  18.9 °C 50.2 °F /  10.1 °C 30.2in /  1024.0hPa SE 1.4mph /  2.2km/h 2mph /  3.2km/h 56.5% 0in /  0.0mm
18:49 65.7 °F /  18.7 °C 50 °F /  10 °C 30.2in /  1024.0hPa Calm   2.4mph /  3.9km/h 57% 0in /  0.0mm
18:54 65.3 °F /  18.5 °C 50 °F /  10 °C 30.2in /  1024.0hPa SE 0.9mph /  1.4km/h 2.3mph /  3.7km/h 57.6% 0in /  0.0mm
18:59 64.9 °F /  18.3 °C 50.2 °F /  10.1 °C 30.2in /  1024.0hPa SE 1.4mph /  2.2km/h 2.9mph /  4.7km/h 58.6% 0in /  0.0mm
19:04 64.8 °F /  18.2 °C 50 °F /  10 °C 30.2in /  1024.0hPa SE 1.4mph /  2.2km/h 3.1mph /  5km/h 59% 0in /  0.0mm
19:09 64.4 °F /  18 °C 49.6 °F /  9.8 °C 30.2in /  1024.0hPa SSE 1.4mph /  2.2km/h 4.7mph /  7.6km/h 59% 0in /  0.0mm
19:14 63.9 °F /  17.7 °C 49.6 °F /  9.8 °C 30.2in /  1024.0hPa Sur 2.4mph /  3.9km/h 5.8mph /  9.3km/h 59.9% 0in /  0.0mm
19:19 63.7 °F /  17.6 °C 49.5 °F /  9.7 °C 30.2in /  1024.0hPa SSE 3.1mph /  5km/h 6.2mph /  10km/h 60% 0in /  0.0mm
19:24 63.5 °F /  17.5 °C 48.9 °F /  9.4 °C 30.2in /  1024.0hPa Sur 4.1mph /  6.6km/h 7.4mph /  11.9km/h 59% 0in /  0.0mm
19:29 63.3 °F /  17.4 °C 48.4 °F /  9.1 °C 30.2in /  1024.0hPa Sur 4.7mph /  7.6km/h 7mph /  11.3km/h 58% 0in /  0.0mm
19:34 63.3 °F /  17.4 °C 48.4 °F /  9.1 °C 30.2in /  1024.0hPa Sur 5mph /  8.1km/h 7mph /  11.3km/h 58% 0in /  0.0mm
19:39 63.1 °F /  17.3 °C 48.2 °F /  9 °C 30.2in /  1024.1hPa Sur 5.2mph /  8.4km/h 6mph /  9.7km/h 58% 0in /  0.0mm
19:44 63 °F /  17.2 °C 48 °F /  8.9 °C 30.2in /  1024.1hPa Sur 4.4mph /  7.1km/h 6mph /  9.7km/h 58.2% 0in /  0.0mm
19:49 62.8 °F /  17.1 °C 48 °F /  8.9 °C 30.2in /  1024.1hPa SSE 4mph /  6.5km/h 6mph /  9.7km/h 58.7% 0in /  0.0mm
19:54 62.4 °F /  16.9 °C 48.4 °F /  9.1 °C 30.2in /  1024.2hPa Oeste 3.4mph /  5.4km/h 5mph /  8km/h 60.1% 0in /  0.0mm
19:59 61.7 °F /  16.5 °C 48.7 °F /  9.3 °C 30.2in /  1024.2hPa NO 2.9mph /  4.7km/h 4.6mph /  7.4km/h 62.5% 0in /  0.0mm
20:04 60.8 °F /  16 °C 48.6 °F /  9.2 °C 30.2in /  1024.2hPa ONO 2.5mph /  4.1km/h 5mph /  8km/h 64% 0in /  0.0mm
20:09 60.4 °F /  15.8 °C 48.6 °F /  9.2 °C 30.3in /  1024.3hPa Oeste 2.4mph /  3.9km/h 5mph /  8km/h 65% 0in /  0.0mm
20:14 60.3 °F /  15.7 °C 48 °F /  8.9 °C 30.3in /  1024.3hPa Oeste 2.4mph /  3.9km/h 4.6mph /  7.4km/h 64.1% 0in /  0.0mm
20:19 60.3 °F /  15.7 °C 47.8 °F /  8.8 °C 30.3in /  1024.3hPa OSO 2.4mph /  3.9km/h 5mph /  8km/h 63.4% 0in /  0.0mm
20:22 60.3 °F /  15.7 °C 47.7 °F /  8.7 °C 30.3in /  1024.5hPa OSO 2.5mph /  4.1km/h 5mph /  8km/h 63.1% 0in /  0.0mm
20:39 59.7 °F /  15.4 °C 47.1 °F /  8.4 °C 30.3in /  1024.6hPa SSO 2.9mph /  4.7km/h 4.6mph /  7.4km/h 63% 0in /  0.0mm
20:44 59.7 °F /  15.4 °C 46.8 °F /  8.2 °C 30.3in /  1024.6hPa SSO 2.9mph /  4.7km/h 5.2mph /  8.4km/h 62.1% 0in /  0.0mm
20:49 59.9 °F /  15.5 °C 46.8 °F /  8.2 °C 30.3in /  1024.6hPa Sur 2.9mph /  4.6km/h 5.2mph /  8.4km/h 62% 0in /  0.0mm
20:54 59.9 °F /  15.5 °C 46.6 °F /  8.1 °C 30.3in /  1024.6hPa SSE 3mph /  4.9km/h 5.9mph /  9.5km/h 61.7% 0in /  0.0mm
20:59 59.7 °F /  15.4 °C 46.8 °F /  8.2 °C 30.3in /  1024.6hPa SSE 3.1mph /  5km/h 6mph /  9.7km/h 62% 0in /  0.0mm
21:04 59.5 °F /  15.3 °C 46.4 °F /  8 °C 30.3in /  1024.6hPa SSE 3.7mph /  6km/h 6.9mph /  11.1km/h 62% 0in /  0.0mm
21:09 59.2 °F /  15.1 °C 46.6 °F /  8.1 °C 30.3in /  1024.6hPa SSE 4mph /  6.5km/h 7mph /  11.3km/h 62.9% 0in /  0.0mm
21:14 58.8 °F /  14.9 °C 46.4 °F /  8 °C 30.3in /  1024.6hPa Sur 4.4mph /  7.1km/h 8.1mph /  13km/h 63.2% 0in /  0.0mm
21:19 58.6 °F /  14.8 °C 46.6 °F /  8.1 °C 30.3in /  1024.6hPa Sur 4.7mph /  7.6km/h 8.1mph /  13km/h 64% 0in /  0.0mm
21:24 58.6 °F /  14.8 °C 46.6 °F /  8.1 °C 30.3in /  1024.8hPa SSO 5.1mph /  8.2km/h 8mph /  12.9km/h 64.4% 0in /  0.0mm
21:29 58.6 °F /  14.8 °C 46.9 °F /  8.3 °C 30.3in /  1024.8hPa SSO 5.4mph /  8.7km/h 7mph /  11.3km/h 65% 0in /  0.0mm
21:34 58.8 °F /  14.9 °C 46.8 °F /  8.2 °C 30.3in /  1024.8hPa SSO 5mph /  8km/h 8.1mph /  13km/h 64.1% 0in /  0.0mm
21:39 59 °F /  15 °C 46.8 °F /  8.2 °C 30.3in /  1024.8hPa SO 4.7mph /  7.6km/h 8.1mph /  13km/h 63.5% 0in /  0.0mm
21:44 59 °F /  15 °C 46.4 °F /  8 °C 30.3in /  1024.8hPa SSO 4.7mph /  7.6km/h 7mph /  11.3km/h 63% 0in /  0.0mm
21:49 58.8 °F /  14.9 °C 46.2 °F /  7.9 °C 30.3in /  1024.8hPa SSO 4.7mph /  7.6km/h 6mph /  9.7km/h 63% 0in /  0.0mm
21:54 58.6 °F /  14.8 °C 46.2 °F /  7.9 °C 30.3in /  1024.9hPa SSO 4mph /  6.5km/h 6.2mph /  10km/h 63.3% 0in /  0.0mm
21:59 58.5 °F /  14.7 °C 46.4 °F /  8 °C 30.3in /  1024.9hPa SSO 3.6mph /  5.8km/h 7.4mph /  11.9km/h 64% 0in /  0.0mm
22:04 58.5 °F /  14.7 °C 46.6 °F /  8.1 °C 30.3in /  1024.9hPa SSO 4.3mph /  6.9km/h 8.1mph /  13km/h 65% 0in /  0.0mm
22:09 58.3 °F /  14.6 °C 46.6 °F /  8.1 °C 30.3in /  1024.9hPa Sur 4.7mph /  7.6km/h 8.1mph /  13km/h 65% 0in /  0.0mm
22:14 58.1 °F /  14.5 °C 46.4 °F /  8 °C 30.3in /  1024.9hPa SSE 5mph /  8.1km/h 7mph /  11.3km/h 65% 0in /  0.0mm
22:19 57.9 °F /  14.4 °C 46.2 °F /  7.9 °C 30.3in /  1024.9hPa Sur 5.2mph /  8.4km/h 7mph /  11.3km/h 65.3% 0in /  0.0mm
22:24 57.7 °F /  14.3 °C 46.4 °F /  8 °C 30.3in /  1025.0hPa Sur 4.5mph /  7.2km/h 7mph /  11.3km/h 66% 0in /  0.0mm
22:29 57.2 °F /  14 °C 46 °F /  7.8 °C 30.3in /  1025.0hPa Sur 4mph /  6.5km/h 7.4mph /  11.9km/h 66.5% 0in /  0.0mm
22:34 56.8 °F /  13.8 °C 46 °F /  7.8 °C 30.3in /  1025.0hPa SSO 4.7mph /  7.6km/h 8.1mph /  13km/h 67.5% 0in /  0.0mm
22:39 56.5 °F /  13.6 °C 46.2 °F /  7.9 °C 30.3in /  1025.1hPa SSO 5.2mph /  8.4km/h 9.2mph /  14.8km/h 68.5% 0in /  0.0mm
22:44 56.5 °F /  13.6 °C 46.4 °F /  8 °C 30.3in /  1025.1hPa SSO 5.2mph /  8.4km/h 9mph /  14.5km/h 69% 0in /  0.0mm
22:49 56.3 °F /  13.5 °C 46.2 °F /  7.9 °C 30.3in /  1025.1hPa Sur 5.2mph /  8.4km/h 8mph /  12.9km/h 69% 0in /  0.0mm
22:54 56.3 °F /  13.5 °C 46.2 °F /  7.9 °C 30.3in /  1025.1hPa Sur 4.5mph /  7.2km/h 6mph /  9.7km/h 69% 0in /  0.0mm
22:59 56.1 °F /  13.4 °C 46.4 °F /  8 °C 30.3in /  1025.1hPa Sur 4mph /  6.5km/h 6.2mph /  10km/h 69.7% 0in /  0.0mm
23:04 55.9 °F /  13.3 °C 46.2 °F /  7.9 °C 30.3in /  1025.1hPa Sur 4.2mph /  6.8km/h 6mph /  9.7km/h 70% 0in /  0.0mm
23:09 55.8 °F /  13.2 °C 46 °F /  7.8 °C 30.3in /  1025.2hPa SSE 4.3mph /  6.9km/h 6mph /  9.7km/h 70% 0in /  0.0mm
23:14 55.2 °F /  12.9 °C 45.9 °F /  7.7 °C 30.3in /  1025.2hPa SSE 4.1mph /  6.6km/h 6mph /  9.7km/h 70.7% 0in /  0.0mm
23:19 54.7 °F /  12.6 °C 45.7 °F /  7.6 °C 30.3in /  1025.2hPa SSE 4mph /  6.5km/h 6mph /  9.7km/h 71.6% 0in /  0.0mm
23:24 54.1 °F /  12.3 °C 45.3 °F /  7.4 °C 30.3in /  1025.4hPa SSE 4mph /  6.5km/h 6.2mph /  10km/h 72.1% 0in /  0.0mm
23:29 53.6 °F /  12 °C 45.3 °F /  7.4 °C 30.3in /  1025.4hPa SSE 4mph /  6.5km/h 6mph /  9.7km/h 73.2% 0in /  0.0mm
23:34 53.2 °F /  11.8 °C 45.3 °F /  7.4 °C 30.3in /  1025.4hPa Sur 4mph /  6.5km/h 6.9mph /  11.1km/h 74.4% 0in /  0.0mm
23:39 53.2 °F /  11.8 °C 45.5 °F /  7.5 °C 30.3in /  1025.4hPa Sur 4mph /  6.5km/h 7mph /  11.3km/h 75% 0in /  0.0mm
23:44 53.2 °F /  11.8 °C 45.5 °F /  7.5 °C 30.3in /  1025.4hPa Sur 4.2mph /  6.7km/h 7mph /  11.3km/h 75% 0in /  0.0mm
23:49 53.2 °F /  11.8 °C 45.5 °F /  7.5 °C 30.3in /  1025.4hPa SSO 4.3mph /  6.9km/h 6.2mph /  10km/h 75% 0in /  0.0mm
23:54 53.4 °F /  11.9 °C 45.7 °F /  7.6 °C 30.3in /  1025.4hPa Sur 4.3mph /  6.9km/h 6.2mph /  10km/h 74.6% 0in /  0.0mm
23:59 53.8 °F /  12.1 °C 45.7 °F /  7.6 °C 30.3in /  1025.3hPa Sur 4.3mph /  6.9km/h 6mph /  9.7km/h 74% 0in /  0.0mm
Murcia-Puente Tocinos, España
Compliments of Weather Underground - 3 mb

La estación de MeteoMurcia.com, publica sus datos en los siguientes proyectos:

Weather Underground PWS IMURCIAP2 Meteoclimatic www.awekas.at

W3Counter
Web Analytics